首页
METAR-TAF:

METAR-TAF

机场 :

恩德培国际机场

恩德培, 乌干达

纬度: 00-03N, 经度: 032-27E, 海拔: 1155米

当前天气观测

该预报发布于1小时和7分钟前的07:30 UTC
风速5节,风向
温度 23°C
湿度 78%
气压 1018 hPa
能見度: 9000
少量云层高于2100英尺
少量云层高于2300英尺, 积雨云.

METAR: HUEN 160730Z 36005KT 9000 FEW021 FEW023CB 23/19 Q1018

时间: 11:37 (08:37 UTC)

预报

该预报发布于3小时和37分钟前的05:00 UTC
预报有效从16日的 06点(UTC)到 17日的 12点(UTC)
风速6节,风向
能见度10公里或以上
少量云层高于2000英尺
少量云层高于2200英尺, 积雨云.
散云层高于9000英尺
成为
从 16日的 06点(UTC)到 16日的 10点(UTC)
风速12节,风向多变
能見度: 9000
散云层高于1800英尺
少量云层高于2000英尺, 积雨云.
多云层高于10000英尺
雷暴, 小雨,

TAF: HUEN 160500Z 1606/1712 18006KT 9999 FEW020 FEW022CB SCT090 BECMG 1606/1610 VRB12KT 9000 -TSRA SCT018 FEW020CB BKN100

超过4000个机场的气象观测和天气预报(METAR&TAF报告)。

可查询的气象台以黄色和红色小点在地图上表示。

将鼠标移到小点上方,可查看气象台名称。

然后点击查看天气观测和预报。

如需切换地图:点击带黑十字的绿色按钮放大地图;点击带横线的绿色按钮缩小地图;或者点击绿色箭头查看邻近地区的地图。


METAR-TAF: